createdAt,value
2017-07-20T00:00:36.852Z,18.2
2017-07-20T00:01:36.445Z,18.2
2017-07-20T00:02:35.638Z,18.1
2017-07-20T00:03:34.728Z,18.1
2017-07-20T00:04:34.313Z,18.1
2017-07-20T00:05:33.505Z,18.1
2017-07-20T00:06:32.959Z,18.1
2017-07-20T00:07:32.169Z,18.1
2017-07-20T00:08:31.390Z,18.1
2017-07-20T00:09:01.766Z,18.1
2017-07-20T00:09:32.422Z,18.1
2017-07-20T00:10:02.807Z,18.1
2017-07-20T00:10:33.209Z,18.1
2017-07-20T00:11:03.732Z,18.1
2017-07-20T00:11:34.010Z,18.1
2017-07-20T00:12:04.518Z,18.1
2017-07-20T00:12:34.911Z,18.1
2017-07-20T00:13:05.441Z,18.1
2017-07-20T00:14:27.795Z,18.1
2017-07-20T00:15:26.871Z,18.1
2017-07-20T00:16:26.439Z,18.1
2017-07-20T00:17:25.634Z,18.1
2017-07-20T00:18:24.839Z,18.1
2017-07-20T00:19:24.534Z,18.1
2017-07-20T00:19:55.035Z,18.1
2017-07-20T00:20:25.309Z,18
2017-07-20T00:20:55.823Z,18
2017-07-20T00:21:26.111Z,18
2017-07-20T00:21:56.404Z,18
2017-07-20T00:22:26.714Z,18
2017-07-20T00:22:57.221Z,18
2017-07-20T00:23:27.488Z,18
2017-07-20T00:23:57.887Z,18
2017-07-20T00:25:20.237Z,18
2017-07-20T00:26:19.433Z,18
2017-07-20T00:27:19.027Z,18
2017-07-20T00:28:18.101Z,18
2017-07-20T00:29:17.680Z,18
2017-07-20T00:30:16.887Z,18
2017-07-20T00:31:16.485Z,18
2017-07-20T00:32:15.608Z,18
2017-07-20T00:33:15.196Z,18
2017-07-20T00:33:45.698Z,18
2017-07-20T00:34:16.201Z,18
2017-07-20T00:35:13.903Z,18
2017-07-20T00:36:13.101Z,18
2017-07-20T00:37:12.181Z,18
2017-07-20T00:38:11.774Z,18
2017-07-20T00:39:10.873Z,18
2017-07-20T00:41:09.468Z,17.9
2017-07-20T00:42:09.180Z,18
2017-07-20T00:43:08.378Z,17.9
2017-07-20T00:44:07.843Z,18
2017-07-20T00:45:06.792Z,17.9
2017-07-20T00:46:06.383Z,17.9
2017-07-20T00:47:05.584Z,17.9
2017-07-20T00:48:04.779Z,17.9
2017-07-20T00:49:04.362Z,18
2017-07-20T00:50:03.566Z,18
2017-07-20T00:51:03.282Z,18
2017-07-20T00:52:02.486Z,18
2017-07-20T00:52:32.873Z,18
2017-07-20T00:53:03.293Z,18
2017-07-20T00:53:33.942Z,18
2017-07-20T00:55:00.317Z,18
2017-07-20T00:55:59.790Z,18
2017-07-20T00:57:58.373Z,18.1
2017-07-20T00:58:57.619Z,18
2017-07-20T00:59:56.696Z,18.1
2017-07-20T01:00:56.391Z,18
2017-07-20T01:01:55.598Z,18
2017-07-20T01:02:54.793Z,18.1
2017-07-20T01:03:25.299Z,18.1
2017-07-20T01:03:55.798Z,18.1
2017-07-20T01:04:26.313Z,18.1
2017-07-20T01:04:56.693Z,18.1
2017-07-20T01:05:53.245Z,18.1
2017-07-20T01:06:52.320Z,18.1
2017-07-20T01:07:51.518Z,18.1
2017-07-20T01:08:51.107Z,18.1
2017-07-20T01:09:50.188Z,18.1
2017-07-20T01:10:49.900Z,18.1
2017-07-20T01:11:48.868Z,18.2
2017-07-20T01:12:48.442Z,18.2
2017-07-20T01:13:47.508Z,18.2
2017-07-20T01:14:47.099Z,18.2
2017-07-20T01:15:46.187Z,18.2
2017-07-20T01:16:45.459Z,18.2
2017-07-20T01:17:44.938Z,18.2
2017-07-20T01:18:44.034Z,18.2
2017-07-20T01:19:14.435Z,18.2
2017-07-20T01:19:44.847Z,18.2
2017-07-20T01:20:42.935Z,18.2
2017-07-20T01:21:42.513Z,18.2
2017-07-20T01:22:41.730Z,18.2
2017-07-20T01:23:40.812Z,18.2
2017-07-20T01:24:40.278Z,18.2
2017-07-20T01:25:39.854Z,18.4
2017-07-20T01:26:39.067Z,18.3
2017-07-20T01:27:38.159Z,18.3
2017-07-20T01:28:37.782Z,18.3
2017-07-20T01:29:08.320Z,18.3
2017-07-20T01:29:38.706Z,18.3
2017-07-20T01:30:09.211Z,18.3
2017-07-20T01:30:39.497Z,18.4
2017-07-20T01:31:10.024Z,18.4
2017-07-20T01:31:40.544Z,18.4
2017-07-20T01:32:35.101Z,18.4
2017-07-20T01:33:34.294Z,18.4
2017-07-20T01:34:33.487Z,18.4
2017-07-20T01:35:33.194Z,18.4
2017-07-20T01:36:32.261Z,18.4
2017-07-20T01:37:31.866Z,18.3
2017-07-20T01:38:31.053Z,18.3
2017-07-20T01:39:30.248Z,18.3
2017-07-20T01:40:29.821Z,18.3
2017-07-20T01:41:29.029Z,18.3
2017-07-20T01:42:28.234Z,18.3
2017-07-20T01:43:27.940Z,18.3
2017-07-20T01:44:27.017Z,18.3
2017-07-20T01:45:26.195Z,18.3
2017-07-20T01:46:25.902Z,18.3
2017-07-20T01:47:24.985Z,18.2
2017-07-20T01:48:24.170Z,18.2
2017-07-20T01:48:54.563Z,18.2
2017-07-20T01:50:22.961Z,18.2
2017-07-20T01:51:22.541Z,18.2
2017-07-20T01:52:21.778Z,18.2
2017-07-20T01:53:20.976Z,18.2
2017-07-20T01:54:20.186Z,18.2
2017-07-20T01:55:19.773Z,18.2
2017-07-20T01:56:19.009Z,18.1
2017-07-20T01:57:18.207Z,18.2
2017-07-20T01:58:17.897Z,18.2
2017-07-20T01:58:48.413Z,18.2
2017-07-20T01:59:18.917Z,18.2
2017-07-20T01:59:49.200Z,18.2
2017-07-20T02:00:19.707Z,18.2
2017-07-20T02:00:50.236Z,18.2
2017-07-20T02:01:20.625Z,18.2
2017-07-20T02:01:50.896Z,18.2
2017-07-20T02:02:21.403Z,18.2
2017-07-20T02:02:51.918Z,18.2
2017-07-20T02:04:13.653Z,18.2
2017-07-20T02:05:12.857Z,18.2
2017-07-20T02:06:12.557Z,18.2
2017-07-20T02:07:11.679Z,18.1
2017-07-20T02:08:10.762Z,18.2
2017-07-20T02:09:10.220Z,18.1
2017-07-20T02:10:09.793Z,18.1
2017-07-20T02:10:40.311Z,18.1
2017-07-20T02:11:10.578Z,18.1
2017-07-20T02:11:40.973Z,18.1
2017-07-20T02:12:11.499Z,18.1
2017-07-20T02:12:41.912Z,18.1
2017-07-20T02:13:12.060Z,18.1
2017-07-20T02:13:42.959Z,18.1
2017-07-20T02:15:06.593Z,18.1
2017-07-20T02:16:05.673Z,18.1
2017-07-20T02:17:05.374Z,18.2
2017-07-20T02:18:04.581Z,18.2
2017-07-20T02:19:03.774Z,18.2
2017-07-20T02:20:02.975Z,18.2
2017-07-20T02:21:02.371Z,18.2
2017-07-20T02:22:01.561Z,18.3
2017-07-20T02:23:00.926Z,18.3
2017-07-20T02:24:00.388Z,18.3
2017-07-20T02:24:59.608Z,18.3
2017-07-20T02:25:59.070Z,18.3
2017-07-20T02:26:58.159Z,18.3
2017-07-20T02:27:57.744Z,18.4
2017-07-20T02:28:57.313Z,18.4
2017-07-20T02:29:56.512Z,18.4
2017-07-20T02:30:26.779Z,18.4
2017-07-20T02:31:55.302Z,18.3
2017-07-20T02:32:54.494Z,18.3
2017-07-20T02:33:53.692Z,18.3
2017-07-20T02:34:53.156Z,18.3
2017-07-20T02:35:52.242Z,18.3
2017-07-20T02:36:51.938Z,18.3
2017-07-20T02:37:51.178Z,18.3
2017-07-20T02:38:50.395Z,18.3
2017-07-20T02:39:49.607Z,18.3
2017-07-20T02:40:49.316Z,18.3
2017-07-20T02:41:19.822Z,18.3
2017-07-20T02:41:50.338Z,18.3
2017-07-20T02:42:20.612Z,18.3
2017-07-20T02:42:51.019Z,18.4
2017-07-20T02:43:21.543Z,18.4
2017-07-20T02:44:46.184Z,18.4
2017-07-20T02:45:45.899Z,18.4
2017-07-20T02:46:44.996Z,18.3
2017-07-20T02:47:44.704Z,18.3
2017-07-20T02:48:43.905Z,18.3
2017-07-20T02:49:42.979Z,18.3
2017-07-20T02:50:42.692Z,18.2
2017-07-20T02:51:41.880Z,18.2
2017-07-20T02:52:12.390Z,18.2
2017-07-20T02:52:42.912Z,18.1
2017-07-20T02:53:13.305Z,18.1
2017-07-20T02:53:43.462Z,18.1
2017-07-20T02:54:14.361Z,18.1
2017-07-20T02:54:44.871Z,18.1
2017-07-20T02:55:38.908Z,18.1
2017-07-20T02:56:38.610Z,18
2017-07-20T02:57:37.816Z,18.1
2017-07-20T02:58:37.027Z,18.1
2017-07-20T02:59:36.611Z,18.1
2017-07-20T03:00:35.806Z,18.1
2017-07-20T03:01:35.384Z,18.1
2017-07-20T03:02:34.347Z,18
2017-07-20T03:03:33.812Z,18
2017-07-20T03:04:33.009Z,18
2017-07-20T03:05:32.601Z,18
2017-07-20T03:06:31.790Z,18
2017-07-20T03:07:30.995Z,18
2017-07-20T03:08:30.598Z,18
2017-07-20T03:09:00.993Z,18
2017-07-20T03:09:31.491Z,17.9
2017-07-20T03:10:28.822Z,17.9
2017-07-20T03:11:28.288Z,17.9
2017-07-20T03:12:27.988Z,17.9
2017-07-20T03:13:26.941Z,17.9
2017-07-20T03:14:26.517Z,17.9
2017-07-20T03:15:25.600Z,17.9
2017-07-20T03:16:25.320Z,17.9
2017-07-20T03:17:24.519Z,18
2017-07-20T03:18:23.743Z,17.9
2017-07-20T03:19:22.959Z,17.9
2017-07-20T03:19:53.345Z,17.9
2017-07-20T03:20:23.842Z,17.9
2017-07-20T03:21:21.538Z,17.9
2017-07-20T03:22:21.247Z,17.9
2017-07-20T03:23:20.446Z,17.9
2017-07-20T03:24:19.639Z,17.9
2017-07-20T03:25:19.338Z,17.9
2017-07-20T03:26:18.533Z,18
2017-07-20T03:27:17.738Z,18
2017-07-20T03:28:17.326Z,17.9
2017-07-20T03:29:16.390Z,17.9
2017-07-20T03:31:14.872Z,17.9
2017-07-20T03:32:14.578Z,17.9
2017-07-20T03:33:13.651Z,17.9
2017-07-20T03:34:13.116Z,18
2017-07-20T03:35:12.080Z,18
2017-07-20T03:36:11.561Z,17.9
2017-07-20T03:37:11.270Z,17.9
2017-07-20T03:38:10.480Z,17.9
2017-07-20T03:38:40.876Z,17.9
2017-07-20T03:39:11.266Z,17.9
2017-07-20T03:39:41.662Z,17.9
2017-07-20T03:41:08.426Z,17.9
2017-07-20T03:42:07.880Z,17.9
2017-07-20T03:43:06.961Z,17.9
2017-07-20T03:44:06.444Z,17.9
2017-07-20T03:45:05.629Z,17.9
2017-07-20T03:46:04.718Z,17.9
2017-07-20T03:47:04.300Z,18
2017-07-20T03:48:03.508Z,17.9
2017-07-20T03:48:33.895Z,17.9
2017-07-20T03:49:04.404Z,18
2017-07-20T03:49:34.791Z,18
2017-07-20T03:50:05.301Z,18
2017-07-20T03:50:35.688Z,18
2017-07-20T03:51:06.195Z,18
2017-07-20T03:51:36.582Z,18
2017-07-20T03:52:07.091Z,18
2017-07-20T03:52:37.507Z,18
2017-07-20T03:53:59.889Z,18
2017-07-20T03:54:59.076Z,18
2017-07-20T03:55:58.168Z,18
2017-07-20T03:56:57.255Z,18
2017-07-20T03:57:56.842Z,18
2017-07-20T03:58:56.190Z,18
2017-07-20T03:59:55.763Z,18
2017-07-20T04:00:54.844Z,18
2017-07-20T04:01:25.353Z,18
2017-07-20T04:01:55.527Z,18
2017-07-20T04:02:25.944Z,18
2017-07-20T04:03:52.818Z,18
2017-07-20T04:04:52.030Z,18
2017-07-20T04:05:51.732Z,18.1
2017-07-20T04:06:50.940Z,18
2017-07-20T04:07:50.161Z,18
2017-07-20T04:08:49.369Z,18
2017-07-20T04:09:49.069Z,18
2017-07-20T04:10:48.255Z,18
2017-07-20T04:11:47.460Z,18
2017-07-20T04:12:46.749Z,18
2017-07-20T04:13:45.945Z,18
2017-07-20T04:14:45.532Z,18.1
2017-07-20T04:15:44.739Z,18.1
2017-07-20T04:16:43.944Z,18.1
2017-07-20T04:17:43.527Z,18.1
2017-07-20T04:18:42.725Z,18.1
2017-07-20T04:19:42.312Z,18.1
2017-07-20T04:20:12.824Z,18.1
2017-07-20T04:20:43.206Z,18.1
2017-07-20T04:21:13.605Z,18.1
2017-07-20T04:22:39.858Z,18.1
2017-07-20T04:23:39.444Z,18.1
2017-07-20T04:24:38.660Z,18.1
2017-07-20T04:25:37.863Z,18.1
2017-07-20T04:26:37.555Z,18.2
2017-07-20T04:27:36.733Z,18.2
2017-07-20T04:28:35.931Z,18.2
2017-07-20T04:29:35.410Z,18.2
2017-07-20T04:30:34.614Z,18.2
2017-07-20T04:31:05.119Z,18.2
2017-07-20T04:31:35.501Z,18.2
2017-07-20T04:32:06.003Z,18.2
2017-07-20T04:32:36.515Z,18.2
2017-07-20T04:33:07.026Z,18.2
2017-07-20T04:33:37.532Z,18.3
2017-07-20T04:34:08.071Z,18.3
2017-07-20T04:34:38.459Z,18.3
2017-07-20T04:35:31.492Z,18.3
2017-07-20T04:36:30.685Z,18.3
2017-07-20T04:37:29.652Z,18.3
2017-07-20T04:38:29.351Z,18.4
2017-07-20T04:39:28.552Z,18.4
2017-07-20T04:40:28.131Z,18.4
2017-07-20T04:41:27.326Z,18.4
2017-07-20T04:41:57.475Z,18.4
2017-07-20T04:42:27.882Z,18.4
2017-07-20T04:42:58.409Z,18.4
2017-07-20T04:43:28.924Z,18.4
2017-07-20T04:43:59.333Z,18.4
2017-07-20T04:44:29.737Z,18.4
2017-07-20T04:45:24.401Z,18.4
2017-07-20T04:46:24.117Z,18.4
2017-07-20T04:47:23.192Z,18.5
2017-07-20T04:48:22.401Z,18.5
2017-07-20T04:49:22.091Z,18.4
2017-07-20T04:50:21.061Z,18.5
2017-07-20T04:51:20.754Z,18.5
2017-07-20T04:52:19.960Z,18.5
2017-07-20T04:53:19.164Z,18.5
2017-07-20T04:54:18.365Z,18.5
2017-07-20T04:55:17.953Z,18.4
2017-07-20T04:56:17.030Z,18.5
2017-07-20T04:57:16.624Z,18.5
2017-07-20T04:58:15.461Z,18.5
2017-07-20T04:59:15.041Z,18.5
2017-07-20T05:00:14.635Z,18.5
2017-07-20T05:01:13.836Z,18.5
2017-07-20T05:02:13.046Z,18.5
2017-07-20T05:03:12.626Z,18.5
2017-07-20T05:04:11.701Z,18.5
2017-07-20T05:05:11.415Z,18.6
2017-07-20T05:06:10.619Z,18.6
2017-07-20T05:07:09.817Z,18.6
2017-07-20T05:08:09.396Z,18.6
2017-07-20T05:09:08.465Z,18.7
2017-07-20T05:10:07.933Z,18.6
2017-07-20T05:11:07.389Z,18.6
2017-07-20T05:12:06.739Z,18.6
2017-07-20T05:13:05.936Z,18.6
2017-07-20T05:14:05.141Z,18.6
2017-07-20T05:15:04.729Z,18.7
2017-07-20T05:17:03.336Z,18.7
2017-07-20T05:18:02.531Z,18.7
2017-07-20T05:19:01.745Z,18.7
2017-07-20T05:20:00.943Z,18.7
2017-07-20T05:21:00.541Z,18.8
2017-07-20T05:21:59.612Z,18.8
2017-07-20T05:22:59.083Z,18.8
2017-07-20T05:23:58.163Z,18.9
2017-07-20T05:24:57.759Z,18.9
2017-07-20T05:25:57.219Z,18.9
2017-07-20T05:26:56.440Z,18.9
2017-07-20T05:27:56.029Z,18.9
2017-07-20T05:28:26.296Z,18.9
2017-07-20T05:28:56.810Z,18.9
2017-07-20T05:29:27.210Z,18.9
2017-07-20T05:30:53.972Z,19
2017-07-20T05:31:53.166Z,19
2017-07-20T05:32:52.382Z,19
2017-07-20T05:33:51.846Z,19
2017-07-20T05:34:51.071Z,19
2017-07-20T05:35:50.755Z,19
2017-07-20T05:36:49.949Z,19
2017-07-20T05:37:49.155Z,19.1
2017-07-20T05:38:19.673Z,19.1
2017-07-20T05:38:50.192Z,19.1
2017-07-20T05:39:20.586Z,19.1
2017-07-20T05:39:50.982Z,19.1
2017-07-20T05:40:21.271Z,19.1
2017-07-20T05:40:51.807Z,19.1
2017-07-20T05:41:22.326Z,19.1
2017-07-20T05:42:46.071Z,19.1
2017-07-20T05:43:44.917Z,19.1
2017-07-20T05:44:44.628Z,19.1
2017-07-20T05:45:43.711Z,19.2
2017-07-20T05:46:43.291Z,19.1
2017-07-20T05:47:42.489Z,19.2
2017-07-20T05:48:41.964Z,19.2
2017-07-20T05:49:41.157Z,19.2
2017-07-20T05:50:40.847Z,19.2
2017-07-20T05:51:11.357Z,19.2
2017-07-20T05:51:41.890Z,19.2
2017-07-20T05:52:12.158Z,19.2
2017-07-20T05:53:38.541Z,19.2
2017-07-20T05:54:37.994Z,19.2
2017-07-20T05:55:37.188Z,19.2
2017-07-20T05:56:36.903Z,19.2
2017-07-20T05:58:35.486Z,19.2
2017-07-20T05:59:34.698Z,19.2
2017-07-20T06:00:33.897Z,19.2
2017-07-20T06:01:33.477Z,19.2
2017-07-20T06:02:32.674Z,19.2
2017-07-20T06:03:32.268Z,19.3
2017-07-20T06:04:31.478Z,19.5
2017-07-20T06:05:30.669Z,19.5
2017-07-20T06:06:30.378Z,19.5
2017-07-20T06:07:29.571Z,19.6
2017-07-20T06:08:28.761Z,19.6
2017-07-20T06:09:27.958Z,19.6
2017-07-20T06:09:58.349Z,19.6
2017-07-20T06:10:28.860Z,19.6
2017-07-20T06:10:59.250Z,19.6
2017-07-20T06:12:26.029Z,19.7
2017-07-20T06:13:25.503Z,19.7
2017-07-20T06:15:24.351Z,19.8
2017-07-20T06:16:23.545Z,19.8
2017-07-20T06:17:22.736Z,19.8
2017-07-20T06:18:22.304Z,19.8
2017-07-20T06:19:21.880Z,19.9
2017-07-20T06:20:21.075Z,19.9
2017-07-20T06:20:51.586Z,19.9
2017-07-20T06:21:22.091Z,19.9
2017-07-20T06:21:52.601Z,19.9
2017-07-20T06:22:23.112Z,19.9
2017-07-20T06:22:53.521Z,19.9
2017-07-20T06:23:24.028Z,19.9
2017-07-20T06:23:54.423Z,19.9
2017-07-20T06:24:24.933Z,20
2017-07-20T06:25:17.591Z,20
2017-07-20T06:26:17.152Z,20
2017-07-20T06:27:16.351Z,20.2
2017-07-20T06:28:16.046Z,20.2
2017-07-20T06:29:15.249Z,20.2
2017-07-20T06:30:14.332Z,20.3
2017-07-20T06:31:13.921Z,20.4
2017-07-20T06:32:13.114Z,20.4
2017-07-20T06:32:43.501Z,20.4
2017-07-20T06:33:13.878Z,20.5
2017-07-20T06:34:12.069Z,20.5
2017-07-20T06:35:11.167Z,20.7
2017-07-20T06:36:10.759Z,20.7
2017-07-20T06:37:09.962Z,20.7
2017-07-20T06:38:09.166Z,20.8
2017-07-20T06:40:08.026Z,20.8
2017-07-20T06:41:07.488Z,20.8
2017-07-20T06:42:06.569Z,20.9
2017-07-20T06:43:06.274Z,20.9
2017-07-20T06:44:05.476Z,20.9
2017-07-20T06:45:04.835Z,20.9
2017-07-20T06:46:04.056Z,20.9
2017-07-20T06:47:03.516Z,20.9
2017-07-20T06:48:03.214Z,20.9
2017-07-20T06:49:02.187Z,21
2017-07-20T06:50:01.885Z,21
2017-07-20T06:51:01.084Z,21
2017-07-20T06:52:00.655Z,21.1
2017-07-20T06:52:59.855Z,21.1
2017-07-20T06:53:59.437Z,21.1
2017-07-20T06:54:58.639Z,21.1
2017-07-20T06:55:57.711Z,21.1
2017-07-20T06:56:57.169Z,21.1
2017-07-20T06:57:56.871Z,21.1
2017-07-20T06:58:55.834Z,21
2017-07-20T06:59:55.421Z,21.1
2017-07-20T07:00:55.008Z,21.1
2017-07-20T07:01:54.206Z,21
2017-07-20T07:02:53.295Z,21.1
2017-07-20T07:03:52.764Z,21.1
2017-07-20T07:04:52.364Z,21.1
2017-07-20T07:05:51.454Z,21.1
2017-07-20T07:06:51.153Z,21.1
2017-07-20T07:07:50.352Z,21.1
2017-07-20T07:08:49.946Z,21.2
2017-07-20T07:09:49.067Z,21.2
2017-07-20T07:10:48.262Z,21.3
2017-07-20T07:11:47.966Z,21.3
2017-07-20T07:12:47.157Z,21.2
2017-07-20T07:13:46.759Z,21.3
2017-07-20T07:14:45.848Z,21.3
2017-07-20T07:15:45.311Z,21.3
2017-07-20T07:16:45.005Z,21.3
2017-07-20T07:17:44.190Z,21.3
2017-07-20T07:18:14.705Z,21.3
2017-07-20T07:18:45.120Z,21.3
2017-07-20T07:19:15.626Z,21.3
2017-07-20T07:19:46.121Z,21.3
2017-07-20T07:20:16.510Z,21.3
2017-07-20T07:21:41.766Z,21.3
2017-07-20T07:22:40.842Z,21.2
2017-07-20T07:23:40.535Z,21.2
2017-07-20T07:24:39.746Z,21.2
2017-07-20T07:25:39.211Z,21.3
2017-07-20T07:26:38.798Z,21.4
2017-07-20T07:27:37.873Z,21.4
2017-07-20T07:28:08.318Z,21.4
2017-07-20T07:28:38.709Z,21.4
2017-07-20T07:29:09.104Z,21.4
2017-07-20T07:29:39.509Z,21.4
2017-07-20T07:30:09.785Z,21.4
2017-07-20T07:30:40.174Z,21.5
2017-07-20T07:31:10.680Z,21.5
2017-07-20T07:32:34.803Z,21.6
2017-07-20T07:33:34.398Z,21.6
2017-07-20T07:34:33.484Z,21.7
2017-07-20T07:35:33.181Z,21.8
2017-07-20T07:36:32.251Z,21.8
2017-07-20T07:37:31.738Z,21.9
2017-07-20T07:38:31.316Z,21.9
2017-07-20T07:39:30.514Z,21.9
2017-07-20T07:40:30.250Z,22
2017-07-20T07:41:29.213Z,22
2017-07-20T07:42:28.929Z,22.1
2017-07-20T07:42:59.457Z,22.1
2017-07-20T07:43:29.980Z,22.1
2017-07-20T07:44:27.543Z,22.1
2017-07-20T07:45:27.133Z,22.1
2017-07-20T07:46:26.202Z,22.1
2017-07-20T07:47:25.892Z,22.1
2017-07-20T07:48:24.983Z,22.1
2017-07-20T07:48:55.507Z,22.1
2017-07-20T07:49:26.016Z,22.1
2017-07-20T07:49:56.538Z,22.1
2017-07-20T07:50:27.056Z,22.1
2017-07-20T07:51:23.238Z,22.2
2017-07-20T07:52:22.819Z,22.2
2017-07-20T07:53:21.903Z,22.2
2017-07-20T07:54:21.484Z,22.3
2017-07-20T07:55:20.684Z,22.3
2017-07-20T07:56:20.389Z,22.3
2017-07-20T07:57:19.592Z,22.4
2017-07-20T07:58:19.172Z,22.4
2017-07-20T07:59:18.746Z,22.5
2017-07-20T07:59:49.267Z,22.5
2017-07-20T08:00:19.794Z,22.5
2017-07-20T08:00:50.309Z,22.5
2017-07-20T08:01:21.397Z,22.6
2017-07-20T08:01:51.409Z,22.6
2017-07-20T08:02:21.917Z,22.6
2017-07-20T08:02:52.432Z,22.6
2017-07-20T08:04:15.810Z,22.7
2017-07-20T08:05:14.894Z,22.6
2017-07-20T08:06:14.349Z,22.6
2017-07-20T08:07:13.533Z,22.7
2017-07-20T08:08:13.107Z,22.7
2017-07-20T08:09:12.686Z,22.7
2017-07-20T08:10:11.867Z,22.7
2017-07-20T08:11:12.502Z,22.7
2017-07-20T08:11:43.291Z,22.7
2017-07-20T08:12:13.574Z,22.7
2017-07-20T08:12:43.967Z,22.7
2017-07-20T08:14:09.834Z,22.7
2017-07-20T08:15:08.902Z,22.7
2017-07-20T08:16:08.478Z,22.8
2017-07-20T08:17:07.941Z,22.7
2017-07-20T08:18:07.397Z,22.8
2017-07-20T08:19:06.475Z,22.8
2017-07-20T08:20:06.072Z,22.8
2017-07-20T08:21:05.772Z,22.9
2017-07-20T08:22:04.969Z,22.9
2017-07-20T08:23:04.545Z,22.8
2017-07-20T08:24:03.512Z,22.9
2017-07-20T08:25:03.084Z,22.9
2017-07-20T08:26:02.541Z,23
2017-07-20T08:27:02.239Z,23
2017-07-20T08:28:01.448Z,23
2017-07-20T08:29:00.913Z,23
2017-07-20T08:30:00.489Z,23
2017-07-20T08:30:59.569Z,23.1
2017-07-20T08:31:59.256Z,23.1
2017-07-20T08:32:58.447Z,23.1
2017-07-20T08:33:58.146Z,23
2017-07-20T08:34:57.343Z,23.1
2017-07-20T08:35:57.043Z,23.1
2017-07-20T08:36:56.244Z,23.1
2017-07-20T08:37:55.950Z,23.1
2017-07-20T08:38:26.617Z,23.1
2017-07-20T08:38:56.998Z,23.1
2017-07-20T08:39:54.678Z,23.1
2017-07-20T08:40:53.862Z,23.1
2017-07-20T08:41:53.463Z,23.2
2017-07-20T08:42:52.926Z,23.2
2017-07-20T08:43:52.118Z,23.2
2017-07-20T08:44:51.722Z,23.3
2017-07-20T08:45:50.915Z,23.3
2017-07-20T08:46:50.367Z,23.3
2017-07-20T08:47:49.820Z,23.4
2017-07-20T08:48:49.418Z,23.4
2017-07-20T08:49:48.601Z,23.4
2017-07-20T08:50:48.297Z,23.4
2017-07-20T08:51:47.248Z,23.5
2017-07-20T08:52:47.202Z,23.5
2017-07-20T08:53:46.402Z,23.5
2017-07-20T08:54:46.102Z,23.5
2017-07-20T08:55:45.301Z,23.5
2017-07-20T08:56:44.887Z,23.6
2017-07-20T08:57:44.346Z,23.6
2017-07-20T08:58:43.930Z,23.7
2017-07-20T08:59:14.439Z,23.7
2017-07-20T08:59:44.943Z,23.6
2017-07-20T09:00:15.340Z,23.6
2017-07-20T09:00:45.741Z,23.6
2017-07-20T09:01:41.809Z,23.7
2017-07-20T09:02:41.507Z,23.7
2017-07-20T09:03:40.599Z,23.7
2017-07-20T09:04:40.182Z,23.7
2017-07-20T09:05:39.764Z,23.8
2017-07-20T09:06:39.357Z,23.8
2017-07-20T09:07:38.558Z,23.7
2017-07-20T09:08:38.033Z,23.8
2017-07-20T09:09:08.429Z,23.8
2017-07-20T09:09:38.813Z,23.8
2017-07-20T09:10:08.955Z,23.8
2017-07-20T09:10:39.455Z,23.9
2017-07-20T09:11:09.958Z,23.9
2017-07-20T09:12:36.108Z,24
2017-07-20T09:13:35.181Z,24
2017-07-20T09:14:34.888Z,24
2017-07-20T09:15:34.098Z,24
2017-07-20T09:16:33.801Z,24.1
2017-07-20T09:17:33.389Z,24.1
2017-07-20T09:18:32.597Z,24.1
2017-07-20T09:19:32.177Z,24.2
2017-07-20T09:20:31.377Z,24.2
2017-07-20T09:21:01.765Z,24.2
2017-07-20T09:21:32.258Z,24.3
2017-07-20T09:22:02.640Z,24.3
2017-07-20T09:23:30.011Z,24.3
2017-07-20T09:24:29.082Z,24.4
2017-07-20T09:25:28.656Z,24.4
2017-07-20T09:26:28.117Z,24.4
2017-07-20T09:27:27.683Z,24.6
2017-07-20T09:28:27.141Z,24.6
2017-07-20T09:29:26.319Z,24.6
2017-07-20T09:30:25.898Z,24.6
2017-07-20T09:31:25.475Z,24.6
2017-07-20T09:32:25.049Z,24.7
2017-07-20T09:33:24.117Z,24.7
2017-07-20T09:34:23.582Z,24.8
2017-07-20T09:35:23.281Z,24.8
2017-07-20T09:36:22.987Z,24.8
2017-07-20T09:37:22.198Z,24.8
2017-07-20T09:37:52.695Z,24.8
2017-07-20T09:38:23.194Z,24.9
2017-07-20T09:39:21.382Z,24.9
2017-07-20T09:39:51.897Z,24.9
2017-07-20T09:40:22.398Z,25
2017-07-20T09:40:52.775Z,25
2017-07-20T09:41:23.150Z,25.1
2017-07-20T09:41:53.646Z,25.1
2017-07-20T09:43:18.999Z,25.1
2017-07-20T09:44:18.580Z,25.1
2017-07-20T09:45:17.789Z,25.1
2017-07-20T09:46:17.258Z,25.1
2017-07-20T09:47:16.952Z,25
2017-07-20T09:48:16.158Z,25.1
2017-07-20T09:49:15.751Z,25.2
2017-07-20T09:50:15.353Z,25.2
2017-07-20T09:50:45.738Z,25.2
2017-07-20T09:51:16.228Z,25.2
2017-07-20T09:51:46.499Z,25.2
2017-07-20T09:52:16.877Z,25.1
2017-07-20T09:52:47.037Z,25.1
2017-07-20T09:53:17.483Z,25.2
2017-07-20T09:53:47.742Z,25.2
2017-07-20T09:55:12.492Z,25.3
2017-07-20T09:56:11.950Z,25.3
2017-07-20T09:57:11.535Z,25.2
2017-07-20T09:58:11.230Z,25.2
2017-07-20T09:59:10.428Z,25.2
2017-07-20T10:00:10.019Z,25.2
2017-07-20T10:01:09.725Z,25.2
2017-07-20T10:02:08.801Z,25.2
2017-07-20T10:03:08.136Z,25.3
2017-07-20T10:03:38.924Z,25.3
2017-07-20T10:04:09.303Z,25.4
2017-07-20T10:04:39.805Z,25.4
2017-07-20T10:05:10.071Z,25.4
2017-07-20T10:06:06.880Z,25.5
2017-07-20T10:07:06.451Z,25.5
2017-07-20T10:08:05.642Z,25.5
2017-07-20T10:09:05.332Z,25.5
2017-07-20T10:10:04.799Z,25.5
2017-07-20T10:11:04.379Z,25.5
2017-07-20T10:12:03.950Z,25.6
2017-07-20T10:13:03.549Z,25.6
2017-07-20T10:14:02.622Z,25.7
2017-07-20T10:15:02.317Z,25.7
2017-07-20T10:16:01.891Z,25.7
2017-07-20T10:17:01.477Z,25.8
2017-07-20T10:18:00.549Z,25.8
2017-07-20T10:19:00.248Z,26
2017-07-20T10:19:59.954Z,26.1
2017-07-20T10:20:59.158Z,26
2017-07-20T10:21:58.855Z,26.1
2017-07-20T10:22:58.053Z,26.1
2017-07-20T10:23:57.524Z,26
2017-07-20T10:24:28.022Z,26
2017-07-20T10:25:56.797Z,25.9
2017-07-20T10:26:56.253Z,25.8
2017-07-20T10:27:55.445Z,25.8
2017-07-20T10:28:55.031Z,25.7
2017-07-20T10:29:54.617Z,25.7
2017-07-20T10:30:54.315Z,25.7
2017-07-20T10:31:53.518Z,25.7
2017-07-20T10:32:53.213Z,25.6
2017-07-20T10:33:52.932Z,25.7
2017-07-20T10:34:52.136Z,25.7
2017-07-20T10:35:22.518Z,25.7
2017-07-20T10:35:53.021Z,25.7
2017-07-20T10:36:51.086Z,25.8
2017-07-20T10:37:50.683Z,25.8
2017-07-20T10:38:50.377Z,25.9
2017-07-20T10:39:49.567Z,26
2017-07-20T10:40:49.026Z,26.1
2017-07-20T10:41:48.717Z,26
2017-07-20T10:42:48.413Z,26.1
2017-07-20T10:43:47.500Z,26.1
2017-07-20T10:44:47.215Z,26.1
2017-07-20T10:45:46.916Z,26.2
2017-07-20T10:46:46.115Z,26.2
2017-07-20T10:47:45.580Z,26.3
2017-07-20T10:48:45.041Z,26.2
2017-07-20T10:49:44.504Z,26.3
2017-07-20T10:50:44.004Z,26.4
2017-07-20T10:51:14.507Z,26.4
2017-07-20T10:51:44.904Z,26.4
2017-07-20T10:52:15.412Z,26.4
2017-07-20T10:52:45.679Z,26.3
2017-07-20T10:53:16.074Z,26.3
2017-07-20T10:54:42.448Z,26.4
2017-07-20T10:55:41.914Z,26.3
2017-07-20T10:56:40.998Z,26.2
2017-07-20T10:57:40.702Z,26.2
2017-07-20T10:58:40.399Z,26.1
2017-07-20T10:59:39.872Z,26.2
2017-07-20T11:00:39.578Z,26.3
2017-07-20T11:01:09.972Z,26.3
2017-07-20T11:01:40.353Z,26.4
2017-07-20T11:02:10.749Z,26.4
2017-07-20T11:02:41.136Z,26.4
2017-07-20T11:03:11.646Z,26.4
2017-07-20T11:04:37.510Z,26.5
2017-07-20T11:05:37.084Z,26.4
2017-07-20T11:06:36.693Z,26.4
2017-07-20T11:07:35.891Z,26.2
2017-07-20T11:08:35.588Z,26.2
2017-07-20T11:09:34.768Z,26.1
2017-07-20T11:10:34.350Z,26
2017-07-20T11:11:34.053Z,26
2017-07-20T11:12:33.745Z,25.9
2017-07-20T11:13:33.331Z,25.9
2017-07-20T11:14:32.294Z,25.8
2017-07-20T11:15:31.995Z,25.8
2017-07-20T11:16:31.581Z,25.8
2017-07-20T11:17:31.039Z,25.8
2017-07-20T11:18:30.622Z,25.6
2017-07-20T11:19:30.202Z,25.6
2017-07-20T11:20:29.776Z,25.6
2017-07-20T11:21:29.486Z,25.6
2017-07-20T11:21:59.771Z,25.6
2017-07-20T11:23:28.053Z,25.6
2017-07-20T11:24:27.759Z,25.6
2017-07-20T11:25:27.441Z,25.6
2017-07-20T11:26:26.625Z,25.6
2017-07-20T11:27:26.329Z,25.5
2017-07-20T11:28:25.916Z,25.5
2017-07-20T11:29:25.612Z,25.5
2017-07-20T11:30:24.569Z,25.5
2017-07-20T11:31:24.146Z,25.6
2017-07-20T11:31:54.669Z,25.6
2017-07-20T11:32:24.922Z,25.5
2017-07-20T11:32:55.430Z,25.5
2017-07-20T11:33:25.930Z,25.5
2017-07-20T11:33:56.321Z,25.5
2017-07-20T11:34:26.706Z,25.5
2017-07-20T11:34:57.090Z,25.5
2017-07-20T11:35:27.481Z,25.4
2017-07-20T11:35:57.884Z,25.4
2017-07-20T11:36:28.163Z,25.4
2017-07-20T11:36:58.949Z,25.4
2017-07-20T11:38:20.783Z,25.3
2017-07-20T11:39:20.382Z,25.3
2017-07-20T11:40:20.080Z,25.2
2017-07-20T11:41:19.663Z,25.2
2017-07-20T11:42:18.849Z,25.2
2017-07-20T11:43:18.532Z,25.2
2017-07-20T11:44:18.225Z,25.1
2017-07-20T11:44:48.743Z,25.1
2017-07-20T11:45:19.249Z,25.1
2017-07-20T11:45:49.642Z,25.1
2017-07-20T11:46:19.897Z,25.1
2017-07-20T11:46:50.280Z,25.1
2017-07-20T11:48:16.152Z,25.1
2017-07-20T11:49:15.734Z,25.1
2017-07-20T11:50:15.204Z,25.1
2017-07-20T11:51:14.768Z,25.1
2017-07-20T11:52:14.222Z,25.2
2017-07-20T11:53:13.677Z,25.2